createdAt,value
2019-01-15T00:00:34.978Z,2.87
2019-01-15T00:01:35.005Z,2.86
2019-01-15T00:02:35.032Z,2.89
2019-01-15T00:03:35.063Z,2.87
2019-01-15T00:04:35.086Z,2.81
2019-01-15T00:05:35.122Z,2.86
2019-01-15T00:06:35.143Z,2.84
2019-01-15T00:07:35.168Z,2.89
2019-01-15T00:08:35.195Z,2.90
2019-01-15T00:09:35.223Z,2.89
2019-01-15T00:10:35.251Z,2.98
2019-01-15T00:11:35.278Z,3.01
2019-01-15T00:12:35.306Z,2.95
2019-01-15T00:13:35.332Z,2.90
2019-01-15T00:14:35.360Z,2.97
2019-01-15T00:15:35.394Z,3.01
2019-01-15T00:16:35.419Z,3.04
2019-01-15T00:17:35.444Z,2.99
2019-01-15T00:18:35.471Z,3.05
2019-01-15T00:19:35.504Z,3.04
2019-01-15T00:20:35.528Z,3.04
2019-01-15T00:21:35.556Z,3.05
2019-01-15T00:22:35.581Z,3.02
2019-01-15T00:23:35.608Z,3.02
2019-01-15T00:24:35.636Z,3.05
2019-01-15T00:25:35.663Z,3.10
2019-01-15T00:26:35.690Z,3.13
2019-01-15T00:27:35.718Z,3.04
2019-01-15T00:28:35.748Z,3.08
2019-01-15T00:29:35.773Z,3.13
2019-01-15T00:30:35.802Z,3.12
2019-01-15T00:31:35.872Z,3.13
2019-01-15T00:32:35.856Z,3.13
2019-01-15T00:33:35.887Z,3.17
2019-01-15T00:34:35.912Z,3.08
2019-01-15T00:35:35.938Z,3.08
2019-01-15T00:36:35.966Z,3.07
2019-01-15T00:37:35.997Z,3.13
2019-01-15T00:38:36.021Z,3.20
2019-01-15T00:39:36.049Z,3.16
2019-01-15T00:40:36.076Z,3.20
2019-01-15T00:41:36.152Z,3.20
2019-01-15T00:42:36.133Z,3.22
2019-01-15T00:43:36.164Z,3.16
2019-01-15T00:44:36.186Z,3.04
2019-01-15T00:45:36.215Z,3.10
2019-01-15T00:46:36.248Z,3.20
2019-01-15T00:47:36.271Z,3.16
2019-01-15T00:48:36.297Z,3.10
2019-01-15T00:49:36.327Z,3.20
2019-01-15T00:50:36.354Z,3.20
2019-01-15T00:51:36.382Z,3.26
2019-01-15T00:52:36.408Z,3.22
2019-01-15T00:53:36.436Z,3.28
2019-01-15T00:54:36.465Z,3.19
2019-01-15T00:55:36.493Z,3.28
2019-01-15T00:56:36.521Z,3.19
2019-01-15T00:57:36.546Z,3.20
2019-01-15T00:58:36.574Z,3.28
2019-01-15T00:59:36.604Z,3.19
2019-01-15T01:00:36.629Z,3.30
2019-01-15T01:01:36.657Z,3.26
2019-01-15T01:02:36.686Z,3.22
2019-01-15T01:03:36.714Z,3.20
2019-01-15T01:04:36.740Z,3.17
2019-01-15T01:05:36.767Z,3.10
2019-01-15T01:06:36.801Z,3.19
2019-01-15T01:07:36.824Z,3.16
2019-01-15T01:08:36.851Z,3.17
2019-01-15T01:09:36.879Z,3.20
2019-01-15T01:10:36.910Z,3.22
2019-01-15T01:11:36.940Z,3.20
2019-01-15T01:12:36.962Z,3.17
2019-01-15T01:13:36.991Z,3.22
2019-01-15T01:14:37.019Z,3.22
2019-01-15T01:15:37.054Z,3.17
2019-01-15T01:16:37.073Z,3.28
2019-01-15T01:17:37.100Z,3.28
2019-01-15T01:18:37.128Z,3.26
2019-01-15T01:19:37.155Z,3.20
2019-01-15T01:20:37.257Z,3.30
2019-01-15T01:21:37.212Z,3.31
2019-01-15T01:22:37.241Z,3.31
2019-01-15T01:23:37.266Z,3.34
2019-01-15T01:24:37.297Z,3.33
2019-01-15T01:25:37.325Z,3.37
2019-01-15T01:26:37.350Z,3.35
2019-01-15T01:27:37.378Z,3.26
2019-01-15T01:28:37.404Z,3.33
2019-01-15T01:29:37.432Z,3.31
2019-01-15T01:30:37.461Z,3.25
2019-01-15T01:31:37.488Z,3.31
2019-01-15T01:32:37.515Z,3.33
2019-01-15T01:33:37.544Z,3.31
2019-01-15T01:34:37.573Z,3.30
2019-01-15T01:35:37.601Z,3.33
2019-01-15T01:36:37.626Z,3.35
2019-01-15T01:37:37.658Z,3.33
2019-01-15T01:38:37.682Z,3.30
2019-01-15T01:39:37.712Z,3.28
2019-01-15T01:40:37.738Z,3.41
2019-01-15T01:41:37.765Z,3.42
2019-01-15T01:42:37.793Z,3.45
2019-01-15T01:43:37.822Z,3.42
2019-01-15T01:44:37.849Z,3.44
2019-01-15T01:45:37.879Z,3.44
2019-01-15T01:46:37.914Z,3.45
2019-01-15T01:47:37.939Z,3.52
2019-01-15T01:48:37.960Z,3.49
2019-01-15T01:49:37.988Z,3.54
2019-01-15T01:50:38.017Z,3.54
2019-01-15T01:51:38.044Z,3.54
2019-01-15T01:52:38.072Z,3.56
2019-01-15T01:53:38.101Z,3.54
2019-01-15T01:54:38.129Z,3.49
2019-01-15T01:55:38.156Z,3.37
2019-01-15T01:56:38.183Z,3.49
2019-01-15T01:57:38.212Z,3.50
2019-01-15T01:58:38.241Z,3.42
2019-01-15T01:59:38.267Z,3.49
2019-01-15T02:00:38.294Z,3.49
2019-01-15T02:01:38.323Z,3.41
2019-01-15T02:02:38.354Z,3.35
2019-01-15T02:03:38.380Z,3.42
2019-01-15T02:04:38.406Z,3.39
2019-01-15T02:05:38.433Z,3.46
2019-01-15T02:06:38.461Z,3.49
2019-01-15T02:07:38.490Z,3.45
2019-01-15T02:08:38.517Z,3.45
2019-01-15T02:09:38.544Z,3.46
2019-01-15T02:10:38.572Z,3.57
2019-01-15T02:11:38.600Z,3.54
2019-01-15T02:12:38.628Z,3.54
2019-01-15T02:13:38.655Z,3.57
2019-01-15T02:14:38.685Z,3.56
2019-01-15T02:15:38.711Z,3.63
2019-01-15T02:16:38.740Z,3.60
2019-01-15T02:17:38.765Z,3.57
2019-01-15T02:18:38.795Z,3.60
2019-01-15T02:19:38.824Z,3.60
2019-01-15T02:20:38.850Z,3.62
2019-01-15T02:21:38.877Z,3.64
2019-01-15T02:22:38.906Z,3.56
2019-01-15T02:23:38.934Z,3.64
2019-01-15T02:24:38.961Z,3.62
2019-01-15T02:25:38.990Z,3.60
2019-01-15T02:26:39.017Z,3.71
2019-01-15T02:27:39.045Z,3.70
2019-01-15T02:28:39.075Z,3.70
2019-01-15T02:29:39.100Z,3.74
2019-01-15T02:30:39.133Z,3.71
2019-01-15T02:31:39.157Z,3.68
2019-01-15T02:32:39.183Z,3.67
2019-01-15T02:33:39.213Z,3.68
2019-01-15T02:34:39.239Z,3.70
2019-01-15T02:35:39.270Z,3.70
2019-01-15T02:36:39.298Z,3.68
2019-01-15T02:37:39.322Z,3.68
2019-01-15T02:38:39.350Z,3.71
2019-01-15T02:39:39.377Z,3.75
2019-01-15T02:40:39.410Z,3.78
2019-01-15T02:41:39.433Z,3.80
2019-01-15T02:42:46.488Z,3.88
2019-01-15T02:43:39.490Z,3.86
2019-01-15T02:44:39.517Z,3.82
2019-01-15T02:45:39.544Z,3.78
2019-01-15T02:46:39.571Z,3.86
2019-01-15T02:47:39.615Z,3.82
2019-01-15T02:48:39.628Z,3.82
2019-01-15T02:49:39.655Z,3.75
2019-01-15T02:50:39.689Z,3.75
2019-01-15T02:51:39.713Z,3.72
2019-01-15T02:52:39.741Z,3.72
2019-01-15T02:53:39.768Z,3.71
2019-01-15T02:54:39.795Z,3.71
2019-01-15T02:55:39.830Z,3.71
2019-01-15T02:56:39.851Z,3.77
2019-01-15T02:57:39.879Z,3.71
2019-01-15T02:58:39.912Z,3.70
2019-01-15T02:59:39.935Z,3.75
2019-01-15T03:00:39.974Z,3.71
2019-01-15T03:01:39.989Z,3.68
2019-01-15T03:02:40.018Z,3.59
2019-01-15T03:03:40.047Z,3.67
2019-01-15T03:04:40.073Z,3.67
2019-01-15T03:05:40.106Z,3.63
2019-01-15T03:06:40.129Z,3.67
2019-01-15T03:07:40.156Z,3.50
2019-01-15T03:08:40.185Z,3.50
2019-01-15T03:09:40.211Z,3.52
2019-01-15T03:10:40.240Z,3.50
2019-01-15T03:11:40.268Z,3.53
2019-01-15T03:12:40.297Z,3.45
2019-01-15T03:13:40.345Z,3.53
2019-01-15T03:14:40.350Z,3.54
2019-01-15T03:15:40.379Z,3.45
2019-01-15T03:16:40.406Z,3.33
2019-01-15T03:17:40.434Z,3.46
2019-01-15T03:18:40.462Z,3.35
2019-01-15T03:19:40.490Z,3.42
2019-01-15T03:20:40.517Z,3.28
2019-01-15T03:21:40.546Z,3.42
2019-01-15T03:22:40.572Z,3.28
2019-01-15T03:23:40.601Z,3.30
2019-01-15T03:24:40.630Z,3.42
2019-01-15T03:25:40.660Z,3.42
2019-01-15T03:26:40.683Z,3.25
2019-01-15T03:27:40.730Z,3.31
2019-01-15T03:28:40.738Z,3.31
2019-01-15T03:29:40.769Z,3.26
2019-01-15T03:30:40.797Z,3.25
2019-01-15T03:31:40.823Z,3.17
2019-01-15T03:32:40.851Z,3.25
2019-01-15T03:33:40.881Z,3.25
2019-01-15T03:34:40.907Z,3.26
2019-01-15T03:35:40.933Z,3.12
2019-01-15T03:36:40.963Z,3.10
2019-01-15T03:37:40.989Z,3.17
2019-01-15T03:38:41.018Z,3.16
2019-01-15T03:39:41.045Z,3.17
2019-01-15T03:40:41.072Z,3.07
2019-01-15T03:41:41.100Z,3.13
2019-01-15T03:42:41.127Z,3.07
2019-01-15T03:43:41.156Z,3.12
2019-01-15T03:44:41.181Z,3.13
2019-01-15T03:45:41.210Z,3.13
2019-01-15T03:46:41.245Z,3.07
2019-01-15T03:47:41.264Z,3.13
2019-01-15T03:48:41.293Z,3.20
2019-01-15T03:49:41.321Z,3.10
2019-01-15T03:50:41.349Z,3.15
2019-01-15T03:51:41.377Z,3.12
2019-01-15T03:52:41.403Z,3.19
2019-01-15T03:53:41.430Z,3.16
2019-01-15T03:54:41.474Z,3.19
2019-01-15T03:55:41.486Z,3.20
2019-01-15T03:56:41.513Z,3.23
2019-01-15T03:57:41.543Z,3.26
2019-01-15T03:58:41.568Z,3.31
2019-01-15T03:59:41.595Z,3.25
2019-01-15T04:00:41.625Z,3.26
2019-01-15T04:01:41.650Z,3.42
2019-01-15T04:02:41.680Z,3.44
2019-01-15T04:03:41.708Z,3.46
2019-01-15T04:04:41.733Z,3.45
2019-01-15T04:05:41.762Z,3.41
2019-01-15T04:06:41.790Z,3.45
2019-01-15T04:07:41.820Z,3.39
2019-01-15T04:08:41.844Z,3.44
2019-01-15T04:09:41.928Z,3.50
2019-01-15T04:10:41.902Z,3.52
2019-01-15T04:11:41.929Z,3.52
2019-01-15T04:12:41.954Z,3.44
2019-01-15T04:13:41.981Z,3.56
2019-01-15T04:14:42.010Z,3.52
2019-01-15T04:15:42.040Z,3.52
2019-01-15T04:16:42.067Z,3.59
2019-01-15T04:17:42.097Z,3.62
2019-01-15T04:18:42.124Z,3.56
2019-01-15T04:19:42.150Z,3.63
2019-01-15T04:20:42.176Z,3.56
2019-01-15T04:21:42.204Z,3.56
2019-01-15T04:22:42.231Z,3.54
2019-01-15T04:23:42.261Z,3.64
2019-01-15T04:24:42.291Z,3.63
2019-01-15T04:25:42.317Z,3.59
2019-01-15T04:26:42.346Z,3.62
2019-01-15T04:27:42.371Z,3.63
2019-01-15T04:28:42.401Z,3.62
2019-01-15T04:29:42.429Z,3.71
2019-01-15T04:30:42.454Z,3.74
2019-01-15T04:31:42.483Z,3.72
2019-01-15T04:32:42.510Z,3.70
2019-01-15T04:33:42.540Z,3.70
2019-01-15T04:34:42.566Z,3.71
2019-01-15T04:35:42.593Z,3.72
2019-01-15T04:36:42.625Z,3.71
2019-01-15T04:37:42.654Z,3.74
2019-01-15T04:38:42.677Z,3.71
2019-01-15T04:39:42.705Z,3.72
2019-01-15T04:40:42.732Z,3.72
2019-01-15T04:41:42.760Z,3.75
2019-01-15T04:42:42.803Z,3.77
2019-01-15T04:43:42.816Z,3.74
2019-01-15T04:44:42.846Z,3.74
2019-01-15T04:45:42.871Z,3.75
2019-01-15T04:46:42.899Z,3.72
2019-01-15T04:47:42.927Z,3.71
2019-01-15T04:48:42.953Z,3.70
2019-01-15T04:49:42.991Z,3.72
2019-01-15T04:50:43.016Z,3.72
2019-01-15T04:51:43.037Z,3.70
2019-01-15T04:52:43.076Z,3.86
2019-01-15T04:53:43.093Z,3.72
2019-01-15T04:54:43.121Z,3.86
2019-01-15T04:55:43.149Z,3.84
2019-01-15T04:56:43.180Z,3.82
2019-01-15T04:57:43.205Z,3.80
2019-01-15T04:58:43.232Z,3.90
2019-01-15T04:59:43.260Z,3.77
2019-01-15T05:00:43.290Z,3.78
2019-01-15T05:01:43.318Z,3.89
2019-01-15T05:02:43.345Z,3.86
2019-01-15T05:03:43.373Z,3.72
2019-01-15T05:04:43.402Z,3.72
2019-01-15T05:05:43.429Z,3.70
2019-01-15T05:06:43.457Z,3.71
2019-01-15T05:07:43.484Z,3.86
2019-01-15T05:08:43.512Z,3.78
2019-01-15T05:09:43.539Z,3.77
2019-01-15T05:10:43.567Z,3.81
2019-01-15T05:11:43.596Z,3.86
2019-01-15T05:12:43.622Z,3.81
2019-01-15T05:13:43.649Z,3.86
2019-01-15T05:14:43.696Z,3.89
2019-01-15T05:15:43.709Z,3.82
2019-01-15T05:16:43.779Z,3.90
2019-01-15T05:17:43.762Z,3.92
2019-01-15T05:18:43.789Z,3.88
2019-01-15T05:19:43.819Z,3.93
2019-01-15T05:20:43.845Z,3.98
2019-01-15T05:21:43.872Z,3.99
2019-01-15T05:22:43.911Z,3.92
2019-01-15T05:23:43.930Z,4.07
2019-01-15T05:24:43.955Z,3.90
2019-01-15T05:25:43.984Z,4.07
2019-01-15T05:26:44.012Z,4.00
2019-01-15T05:27:44.043Z,3.93
2019-01-15T05:28:44.067Z,3.95
2019-01-15T05:29:44.095Z,4.02
2019-01-15T05:30:44.123Z,3.99
2019-01-15T05:31:44.158Z,4.04
2019-01-15T05:32:44.179Z,3.98
2019-01-15T05:33:44.209Z,4.07
2019-01-15T05:34:44.237Z,3.98
2019-01-15T05:35:44.275Z,4.07
2019-01-15T05:36:44.292Z,4.07
2019-01-15T05:37:44.318Z,4.04
2019-01-15T05:38:44.348Z,3.98
2019-01-15T05:39:44.374Z,4.10
2019-01-15T05:40:44.407Z,4.00
2019-01-15T05:41:44.430Z,4.07
2019-01-15T05:42:44.458Z,4.02
2019-01-15T05:43:44.486Z,4.14
2019-01-15T05:44:44.517Z,4.13
2019-01-15T05:45:44.541Z,4.06
2019-01-15T05:46:44.567Z,4.18
2019-01-15T05:47:44.597Z,4.11
2019-01-15T05:48:44.624Z,4.17
2019-01-15T05:49:44.651Z,4.13
2019-01-15T05:50:44.685Z,4.07
2019-01-15T05:51:44.708Z,4.18
2019-01-15T05:52:44.736Z,4.08
2019-01-15T05:53:44.763Z,4.07
2019-01-15T05:54:44.793Z,4.13
2019-01-15T05:55:44.823Z,4.14
2019-01-15T05:56:44.847Z,4.13
2019-01-15T05:57:44.875Z,4.02
2019-01-15T05:58:44.902Z,4.07
2019-01-15T05:59:44.931Z,4.00
2019-01-15T06:00:44.961Z,4.04
2019-01-15T06:01:44.988Z,4.11
2019-01-15T06:02:45.016Z,4.16
2019-01-15T06:03:45.043Z,4.20
2019-01-15T06:04:45.070Z,4.20
2019-01-15T06:05:45.099Z,4.14
2019-01-15T06:06:45.128Z,4.17
2019-01-15T06:07:45.155Z,4.20
2019-01-15T06:08:45.184Z,4.20
2019-01-15T06:09:45.211Z,4.16
2019-01-15T06:10:45.238Z,4.20
2019-01-15T06:11:45.268Z,4.17
2019-01-15T06:12:45.295Z,4.14
2019-01-15T06:13:45.323Z,4.17
2019-01-15T06:14:45.351Z,4.18
2019-01-15T06:15:45.379Z,4.10
2019-01-15T06:16:45.408Z,4.08
2019-01-15T06:17:45.436Z,4.17
2019-01-15T06:18:45.462Z,4.11
2019-01-15T06:19:45.490Z,4.11
2019-01-15T06:20:45.517Z,4.17
2019-01-15T06:21:45.547Z,4.17
2019-01-15T06:22:45.575Z,4.24
2019-01-15T06:23:45.603Z,4.28
2019-01-15T06:24:45.630Z,4.24
2019-01-15T06:25:45.659Z,4.24
2019-01-15T06:26:45.685Z,4.26
2019-01-15T06:27:45.769Z,4.16
2019-01-15T06:28:45.742Z,4.34
2019-01-15T06:29:45.769Z,4.26
2019-01-15T06:30:45.800Z,4.28
2019-01-15T06:31:45.830Z,4.29
2019-01-15T06:32:45.856Z,4.20
2019-01-15T06:33:45.883Z,4.21
2019-01-15T06:34:45.910Z,4.31
2019-01-15T06:35:45.942Z,4.29
2019-01-15T06:36:45.967Z,4.35
2019-01-15T06:37:45.994Z,4.32
2019-01-15T06:38:46.025Z,4.29
2019-01-15T06:39:46.051Z,4.34
2019-01-15T06:40:46.076Z,4.31
2019-01-15T06:41:46.109Z,4.31
2019-01-15T06:42:46.135Z,4.29
2019-01-15T06:43:49.951Z,4.38
2019-01-15T06:44:46.190Z,4.32
2019-01-15T06:45:46.219Z,4.32
2019-01-15T06:46:46.249Z,4.35
2019-01-15T06:47:46.278Z,4.31
2019-01-15T06:48:46.300Z,4.44
2019-01-15T06:49:46.333Z,4.43
2019-01-15T06:50:46.357Z,4.34
2019-01-15T06:51:46.389Z,4.39
2019-01-15T06:52:46.416Z,4.39
2019-01-15T06:53:46.441Z,4.47
2019-01-15T06:54:46.470Z,4.49
2019-01-15T06:55:46.498Z,4.43
2019-01-15T06:56:46.526Z,4.35
2019-01-15T06:57:46.551Z,4.49
2019-01-15T06:58:46.581Z,4.44
2019-01-15T06:59:46.609Z,4.35
2019-01-15T07:00:46.639Z,4.46
2019-01-15T07:01:46.667Z,4.38
2019-01-15T07:02:46.695Z,4.47
2019-01-15T07:03:46.722Z,4.43
2019-01-15T07:04:46.748Z,4.46
2019-01-15T07:05:46.775Z,4.46
2019-01-15T07:06:46.805Z,4.49
2019-01-15T07:07:46.834Z,4.50
2019-01-15T07:08:46.860Z,4.46
2019-01-15T07:09:46.889Z,4.53
2019-01-15T07:10:46.917Z,4.43
2019-01-15T07:11:46.945Z,4.49
2019-01-15T07:12:46.973Z,4.46
2019-01-15T07:13:48.159Z,4.43
2019-01-15T07:14:47.028Z,4.43
2019-01-15T07:15:47.059Z,4.44
2019-01-15T07:16:47.087Z,4.44
2019-01-15T07:17:47.112Z,4.43
2019-01-15T07:18:47.140Z,4.39
2019-01-15T07:19:47.169Z,4.43
2019-01-15T07:20:47.196Z,4.42
2019-01-15T07:21:47.225Z,4.39
2019-01-15T07:22:47.253Z,4.31
2019-01-15T07:23:47.282Z,4.39
2019-01-15T07:24:47.307Z,4.43
2019-01-15T07:25:47.336Z,4.46
2019-01-15T07:26:47.366Z,4.49
2019-01-15T07:27:47.394Z,4.38
2019-01-15T07:28:47.422Z,4.46
2019-01-15T07:29:47.449Z,4.35
2019-01-15T07:30:47.478Z,4.47
2019-01-15T07:31:47.504Z,4.43
2019-01-15T07:32:47.533Z,4.46
2019-01-15T07:33:47.559Z,4.44
2019-01-15T07:34:47.589Z,4.50
2019-01-15T07:35:47.618Z,4.38
2019-01-15T07:36:47.643Z,4.42
2019-01-15T07:37:47.673Z,4.38
2019-01-15T07:38:47.699Z,4.42
2019-01-15T07:39:47.728Z,4.46
2019-01-15T07:40:47.755Z,4.47
2019-01-15T07:41:47.784Z,4.43
2019-01-15T07:42:47.813Z,4.44
2019-01-15T07:43:47.840Z,4.39
2019-01-15T07:44:47.871Z,4.46
2019-01-15T07:45:47.901Z,4.46
2019-01-15T07:46:47.925Z,4.44
2019-01-15T07:47:47.953Z,4.42
2019-01-15T07:48:47.980Z,4.36
2019-01-15T07:49:48.010Z,4.44
2019-01-15T07:50:48.037Z,4.42
2019-01-15T07:51:48.067Z,4.46
2019-01-15T07:52:48.092Z,4.47
2019-01-15T07:53:48.123Z,4.43
2019-01-15T07:54:48.150Z,4.46
2019-01-15T07:55:48.182Z,4.44
2019-01-15T07:56:48.204Z,4.42
2019-01-15T07:57:48.234Z,4.46
2019-01-15T07:58:48.264Z,4.46
2019-01-15T07:59:48.292Z,4.49
2019-01-15T08:00:48.315Z,4.53
2019-01-15T08:01:48.346Z,4.57
2019-01-15T08:02:48.371Z,4.56
2019-01-15T08:03:48.401Z,4.56
2019-01-15T08:04:48.427Z,4.61
2019-01-15T08:05:48.458Z,4.59
2019-01-15T08:06:48.485Z,4.56
2019-01-15T08:07:48.514Z,4.59
2019-01-15T08:08:48.541Z,4.53
2019-01-15T08:09:48.568Z,4.62
2019-01-15T08:10:48.599Z,4.61
2019-01-15T08:11:48.625Z,4.61
2019-01-15T08:12:48.655Z,4.61
2019-01-15T08:13:48.682Z,4.68
2019-01-15T08:14:48.708Z,4.62
2019-01-15T08:15:56.508Z,4.59
2019-01-15T08:17:53.240Z,4.62
2019-01-15T08:18:52.790Z,4.59
2019-01-15T08:20:56.818Z,4.61
2019-01-15T08:21:56.842Z,4.65
2019-01-15T08:24:00.883Z,4.62
2019-01-15T08:25:00.901Z,4.62
2019-01-15T08:26:53.854Z,4.65
2019-01-15T08:27:53.866Z,4.64
2019-01-15T08:29:57.899Z,4.64
2019-01-15T08:30:57.918Z,4.61
2019-01-15T08:33:01.967Z,4.56
2019-01-15T08:34:01.964Z,4.56
2019-01-15T08:36:05.984Z,4.59
2019-01-15T08:37:06.009Z,4.65
2019-01-15T08:39:10.154Z,4.67
2019-01-15T08:40:10.058Z,4.68
2019-01-15T08:42:14.097Z,4.75
2019-01-15T08:43:14.115Z,4.67
2019-01-15T08:45:07.257Z,4.65
2019-01-15T08:46:07.280Z,4.68
2019-01-15T08:48:11.838Z,4.68
2019-01-15T08:49:11.406Z,4.68
2019-01-15T08:51:15.417Z,4.75
2019-01-15T08:52:15.451Z,4.68
2019-01-15T08:54:19.464Z,4.67
2019-01-15T08:55:19.487Z,4.62
2019-01-15T08:57:23.530Z,4.61
2019-01-15T08:58:23.553Z,4.59
2019-01-15T09:00:27.592Z,4.59
2019-01-15T09:01:27.597Z,4.61
2019-01-15T09:03:31.640Z,4.56
2019-01-15T09:04:31.659Z,4.65
2019-01-15T09:06:25.203Z,4.65
2019-01-15T09:07:24.822Z,4.62
2019-01-15T09:09:28.854Z,4.64
2019-01-15T09:10:28.865Z,4.65
2019-01-15T09:12:32.896Z,4.65
2019-01-15T09:13:32.911Z,4.68
2019-01-15T09:15:36.957Z,4.68
2019-01-15T09:16:36.986Z,4.64
2019-01-15T09:18:41.469Z,4.64
2019-01-15T09:19:41.012Z,4.67
2019-01-15T09:21:45.052Z,4.62
2019-01-15T09:22:45.082Z,4.57
2019-01-15T09:24:49.100Z,4.61
2019-01-15T09:25:49.120Z,4.62
2019-01-15T09:27:53.139Z,4.62
2019-01-15T09:28:53.164Z,4.51
2019-01-15T09:30:57.210Z,4.54
2019-01-15T09:31:57.235Z,4.53
2019-01-15T09:34:01.285Z,4.39
2019-01-15T09:35:01.301Z,4.46
2019-01-15T09:36:54.246Z,4.46
2019-01-15T09:37:54.277Z,4.44
2019-01-15T09:39:58.312Z,4.56
2019-01-15T09:40:58.337Z,4.62
2019-01-15T09:43:02.360Z,4.64
2019-01-15T09:44:02.384Z,4.56
2019-01-15T09:46:06.436Z,4.65
2019-01-15T09:47:06.461Z,4.69
2019-01-15T09:49:10.493Z,4.69
2019-01-15T09:50:10.516Z,4.74
2019-01-15T09:52:20.567Z,4.72
2019-01-15T09:53:14.566Z,4.74
2019-01-15T09:55:18.601Z,4.72
2019-01-15T09:56:18.620Z,4.71
2019-01-15T09:58:22.640Z,4.75
2019-01-15T09:59:22.667Z,4.74
2019-01-15T10:01:26.696Z,4.69
2019-01-15T10:02:26.725Z,4.68
2019-01-15T10:04:30.746Z,4.74
2019-01-15T10:05:30.761Z,4.75
2019-01-15T10:07:34.793Z,4.69
2019-01-15T10:08:34.812Z,4.69
2019-01-15T10:10:38.834Z,4.69
2019-01-15T10:11:39.268Z,4.69
2019-01-15T10:13:42.904Z,4.72
2019-01-15T10:14:42.928Z,4.77
2019-01-15T10:16:35.873Z,4.77
2019-01-15T10:17:35.894Z,4.84
2019-01-15T10:19:39.940Z,4.87
2019-01-15T10:20:39.955Z,4.90
2019-01-15T10:22:43.973Z,4.90
2019-01-15T10:23:43.998Z,4.93
2019-01-15T10:25:48.040Z,4.97
2019-01-15T10:26:48.065Z,4.96
2019-01-15T10:28:52.104Z,4.97
2019-01-15T10:29:58.996Z,4.96
2019-01-15T10:31:45.251Z,5.01
2019-01-15T10:32:45.273Z,5.01
2019-01-15T10:34:49.317Z,5.06
2019-01-15T10:35:49.322Z,5.02
2019-01-15T10:37:53.364Z,5.02
2019-01-15T10:38:53.389Z,5.01
2019-01-15T10:40:57.409Z,5.06
2019-01-15T10:41:57.427Z,4.97
2019-01-15T10:44:01.459Z,4.94
2019-01-15T10:45:01.484Z,4.99
2019-01-15T10:46:54.429Z,5.04
2019-01-15T10:47:54.452Z,5.05
2019-01-15T10:49:59.005Z,5.05
2019-01-15T10:50:59.012Z,5.05
2019-01-15T10:51:59.046Z,5.15
2019-01-15T10:52:59.071Z,5.19
2019-01-15T10:53:59.097Z,5.15
2019-01-15T10:54:59.126Z,5.17
2019-01-15T10:55:59.158Z,5.15
2019-01-15T10:56:59.185Z,5.19
2019-01-15T10:57:59.213Z,5.19
2019-01-15T10:58:59.239Z,5.29
2019-01-15T10:59:59.270Z,5.33
2019-01-15T11:00:59.297Z,5.26
2019-01-15T11:01:59.327Z,5.30
2019-01-15T11:02:59.352Z,5.32
2019-01-15T11:03:59.789Z,5.30
2019-01-15T11:04:59.415Z,5.30
2019-01-15T11:05:59.438Z,5.30
2019-01-15T11:06:59.466Z,5.32
2019-01-15T11:07:59.496Z,5.40
2019-01-15T11:08:59.526Z,5.40
2019-01-15T11:09:59.551Z,5.45
2019-01-15T11:10:59.579Z,5.47
2019-01-15T11:11:59.609Z,5.40
2019-01-15T11:12:59.637Z,5.44
2019-01-15T11:13:59.665Z,5.44
2019-01-15T11:14:59.697Z,5.55
2019-01-15T11:15:59.722Z,5.60
2019-01-15T11:16:59.757Z,5.56
2019-01-15T11:17:59.779Z,5.52
2019-01-15T11:18:59.810Z,5.58
2019-01-15T11:19:59.836Z,5.59
2019-01-15T11:20:59.870Z,5.63
2019-01-15T11:21:59.892Z,5.60
2019-01-15T11:22:59.928Z,5.66
2019-01-15T11:23:59.950Z,5.63
2019-01-15T11:24:59.979Z,5.69
2019-01-15T11:26:00.010Z,5.67
2019-01-15T11:27:00.035Z,5.69
2019-01-15T11:28:00.067Z,5.74
2019-01-15T11:29:00.094Z,5.66
2019-01-15T11:30:00.175Z,5.67
2019-01-15T11:31:00.154Z,5.73
2019-01-15T11:32:00.191Z,5.69
2019-01-15T11:33:00.211Z,5.69
2019-01-15T11:34:00.236Z,5.66
2019-01-15T11:35:00.286Z,5.67
2019-01-15T11:36:00.296Z,5.59
2019-01-15T11:37:00.323Z,5.65
2019-01-15T11:38:00.350Z,5.65
2019-01-15T11:39:00.406Z,5.56
2019-01-15T11:40:00.407Z,5.58
2019-01-15T11:41:00.438Z,5.56
2019-01-15T11:42:00.466Z,5.56
2019-01-15T11:43:00.509Z,5.52
2019-01-15T11:44:00.522Z,5.45
2019-01-15T11:45:03.539Z,5.52
2019-01-15T11:46:00.580Z,5.45
2019-01-15T11:47:00.617Z,5.52
2019-01-15T11:48:00.638Z,5.40
2019-01-15T11:49:00.666Z,5.56
2019-01-15T11:50:00.694Z,5.52
2019-01-15T11:51:00.726Z,5.52
2019-01-15T11:52:00.750Z,5.58
2019-01-15T11:53:00.780Z,5.59
2019-01-15T11:54:00.812Z,5.56
2019-01-15T11:55:00.839Z,5.56
2019-01-15T11:56:00.866Z,5.45
2019-01-15T11:57:00.897Z,5.45
2019-01-15T11:58:00.923Z,5.48
2019-01-15T11:59:00.953Z,5.41
2019-01-15T12:00:00.980Z,5.44
2019-01-15T12:01:01.010Z,5.44
2019-01-15T12:02:01.037Z,5.45
2019-01-15T12:03:01.066Z,5.51
2019-01-15T12:04:01.094Z,5.38
2019-01-15T12:05:01.129Z,5.30
2019-01-15T12:06:01.160Z,5.30
2019-01-15T12:07:01.179Z,5.29
2019-01-15T12:08:01.209Z,5.27
2019-01-15T12:09:01.240Z,5.30
2019-01-15T12:10:01.265Z,5.30
2019-01-15T12:11:01.294Z,5.27
2019-01-15T12:12:01.326Z,5.32
2019-01-15T12:13:01.352Z,5.37
2019-01-15T12:14:01.380Z,5.32
2019-01-15T12:15:01.415Z,5.30
2019-01-15T12:16:01.438Z,5.30
2019-01-15T12:17:01.468Z,5.32
2019-01-15T12:18:01.494Z,5.38
2019-01-15T12:19:01.522Z,5.37
2019-01-15T12:20:01.552Z,5.44
2019-01-15T12:21:01.580Z,5.45
2019-01-15T12:22:01.610Z,5.41
2019-01-15T12:23:01.637Z,5.51
2019-01-15T12:24:01.666Z,5.51
2019-01-15T12:25:01.698Z,5.37
2019-01-15T12:26:01.722Z,5.42
2019-01-15T12:27:01.750Z,5.42
2019-01-15T12:28:01.779Z,5.45
2019-01-15T12:29:01.809Z,5.49
2019-01-15T12:30:01.837Z,5.47
2019-01-15T12:31:01.864Z,5.58
2019-01-15T12:32:01.893Z,5.51
2019-01-15T12:33:01.927Z,5.56
2019-01-15T12:34:01.953Z,5.55
2019-01-15T12:35:01.978Z,5.58
2019-01-15T12:36:02.009Z,5.51
2019-01-15T12:37:02.041Z,5.58
2019-01-15T12:38:02.065Z,5.56
2019-01-15T12:39:02.094Z,5.55
2019-01-15T12:40:02.122Z,5.59
2019-01-15T12:41:02.150Z,5.63
2019-01-15T12:42:02.182Z,5.60
2019-01-15T12:43:02.206Z,5.63
2019-01-15T12:44:02.235Z,5.59
2019-01-15T12:45:02.268Z,5.56
2019-01-15T12:46:02.292Z,5.58
2019-01-15T12:47:02.322Z,5.59
2019-01-15T12:48:02.355Z,5.60
2019-01-15T12:49:02.383Z,5.52
2019-01-15T12:50:02.408Z,5.51
2019-01-15T12:51:02.434Z,5.56
2019-01-15T12:52:02.465Z,5.56
2019-01-15T12:53:02.494Z,5.44
2019-01-15T12:54:02.524Z,5.55
2019-01-15T12:55:02.551Z,5.41
2019-01-15T12:56:02.580Z,5.41
2019-01-15T12:57:02.607Z,5.45
2019-01-15T12:58:02.634Z,5.45
2019-01-15T12:59:02.664Z,5.44
2019-01-15T13:00:02.694Z,5.45
2019-01-15T13:01:02.723Z,5.41
2019-01-15T13:02:02.750Z,5.38
2019-01-15T13:03:02.778Z,5.40
2019-01-15T13:04:02.842Z,5.41
2019-01-15T13:05:02.844Z,5.44
2019-01-15T13:06:02.866Z,5.41
2019-01-15T13:07:02.893Z,5.44
2019-01-15T13:08:02.927Z,5.42
2019-01-15T13:09:02.953Z,5.38
2019-01-15T13:10:02.980Z,5.37
2019-01-15T13:11:03.008Z,5.37
2019-01-15T13:12:03.038Z,5.29
2019-01-15T13:13:03.066Z,5.32
2019-01-15T13:14:03.093Z,5.35
2019-01-15T13:15:03.124Z,5.44
2019-01-15T13:16:03.151Z,5.41
2019-01-15T13:17:03.181Z,5.38
2019-01-15T13:18:03.211Z,5.45
2019-01-15T13:19:03.239Z,5.48
2019-01-15T13:20:03.267Z,5.42
2019-01-15T13:21:03.297Z,5.44
2019-01-15T13:22:03.322Z,5.44
2019-01-15T13:23:03.351Z,5.48
2019-01-15T13:24:03.379Z,5.45
2019-01-15T13:25:03.409Z,5.35
2019-01-15T13:26:03.436Z,5.33
2019-01-15T13:27:03.470Z,5.40
2019-01-15T13:28:03.494Z,5.37
2019-01-15T13:29:03.522Z,5.49
2019-01-15T13:30:03.549Z,5.49
2019-01-15T13:31:03.580Z,5.49
2019-01-15T13:32:03.610Z,5.41
2019-01-15T13:33:03.637Z,5.44
2019-01-15T13:34:03.664Z,5.42
2019-01-15T13:35:03.693Z,5.48
2019-01-15T13:36:03.723Z,5.42
2019-01-15T13:37:03.754Z,5.47
2019-01-15T13:38:03.793Z,5.47
2019-01-15T13:39:03.807Z,5.52
2019-01-15T13:40:03.836Z,5.51
2019-01-15T13:41:03.863Z,5.44
2019-01-15T13:42:03.892Z,5.41
2019-01-15T13:43:03.922Z,5.38
2019-01-15T13:44:03.950Z,5.45
2019-01-15T13:45:03.977Z,5.42
2019-01-15T13:46:04.009Z,5.47
2019-01-15T13:47:04.059Z,5.44
2019-01-15T13:48:04.063Z,5.48
2019-01-15T13:49:04.092Z,5.45
2019-01-15T13:50:04.124Z,5.40
2019-01-15T13:51:04.149Z,5.44
2019-01-15T13:52:04.178Z,5.55
2019-01-15T13:53:04.206Z,5.58
2019-01-15T13:54:04.234Z,5.49
2019-01-15T13:55:04.265Z,5.52
2019-01-15T13:56:04.290Z,5.59
2019-01-15T13:57:04.320Z,5.59
2019-01-15T13:58:04.347Z,5.56
2019-01-15T13:59:04.378Z,5.56
2019-01-15T14:00:04.405Z,5.59
2019-01-15T14:01:04.434Z,5.59
2019-01-15T14:02:05.404Z,5.63
2019-01-15T14:03:04.489Z,5.62
2019-01-15T14:04:04.520Z,5.66
2019-01-15T14:05:04.548Z,5.63
2019-01-15T14:06:04.576Z,5.66
2019-01-15T14:07:04.608Z,5.73
2019-01-15T14:08:04.633Z,5.62
2019-01-15T14:09:04.662Z,5.74
2019-01-15T14:10:04.690Z,5.69
2019-01-15T14:11:04.718Z,5.73
2019-01-15T14:12:04.746Z,5.74